METAR stanice u blizini

 

LYBE - Beograd / Surčin, Srbija
Ažurirano: 10/12/2019 19:30
Slaba kiša, Pretežno oblačno
Slaba kiša, Pretežno oblačno
 Pravac vetra SSZ
Vetar: SSZ 17 km/h
Temperatura: 6°C
Osećaj hladnoće: 3°C
Tačka rose: 6°C
Vlažnost: 100%
Pritisak: 1019 hPa
Pregled: Light Rain
Oblaci: Mostly Cloudy
Vidljivost: 7 km
Cloud details: Mostly Cloudy 152 m
2019/12/10 18:30 LYBE 101830Z 33009KT 7000 -RA BKN005 06/06 Q1019 NOSIG
LYBT - Beograd / Batajnica, Srbija
Ažurirano: 10/12/2019 19:30
Slaba kiša, Pretežno oblačno
Slaba kiša, Pretežno oblačno
 Pravac vetra SZ
Vetar: SZ 22 km/h
Temperatura: 6°C
Osećaj hladnoće: 2°C
Tačka rose: 6°C
Vlažnost: 100%
Pritisak: 1019 hPa
Pregled: Light Rain
Oblaci: Mostly Cloudy
Vidljivost: 10 km
Cloud details: Mostly Cloudy 244 m
2019/12/10 18:30 LYBT 101830Z 32012KT 290V350 9999 -RA BKN008 06/06 Q1019 NOSIG
LYVR - Vršac, Srbija
Ažurirano: 10/12/2019 19:30
Mist, Oblačno
Mist, Oblačno
 Pravac vetra SSI
Vetar: SSI 6 km/h
Temperatura: 6°C
Tačka rose: 6°C
Vlažnost: 100%
Pritisak: 1018 hPa
Pregled: Mist
Oblaci: Oblačno
Vidljivost: 5 km
Cloud details: Oblačno 274 m
2019/12/10 18:30 LYVR 101830Z AUTO 02003KT 5000 BR OVC009/// 06/06 Q1018
 
LYKV - Lađevci, Srbija
Ažurirano: 10/12/2019 19:30
Slaba kiša, Oblačno
Slaba kiša, Oblačno
 Pravac vetra ZSZ
Vetar: ZSZ 7 km/h
Temperatura: 4°C
Osećaj hladnoće: 2°C
Tačka rose: 4°C
Vlažnost: 100%
Pritisak: 1019 hPa
Pregled: Light Rain
Oblaci: Oblačno
Vidljivost: 10 km
Cloud details: Partly Cloudy 274 m
Oblačno 610 m
2019/12/10 18:30 LYKV 101830Z 29004KT 260V320 9999 -RA SCT009 OVC020 04/04 Q1019 NOSIG
LYNI - Niš, Srbija
Ažurirano: 10/12/2019 19:30
Mostly Cloudy
Mostly Cloudy
 Pravac vetra SZ
Vetar: SZ 19 km/h
Temperatura: 6°C
Osećaj hladnoće: 3°C
Tačka rose: 4°C
Vlažnost: 87%
Pritisak: 1016 hPa
Oblaci: Mostly Cloudy
Vidljivost: 10 km
Cloud details: Mostly Cloudy 305 m
2019/12/10 18:30 LYNI 101830Z 32010KT 9999 BKN010 06/04 Q1016 NOSIG
BKPR - Priština, Srbija
Ažurirano: 10/12/2019 19:30
Mostly Cloudy
Mostly Cloudy
 Pravac vetra S
Vetar: S 24 km/h
Temperatura: 4°C
Osećaj hladnoće: -1°C
Tačka rose: 1°C
Vlažnost: 81%
Pritisak: 1014 hPa
Oblaci: Mostly Cloudy
Vidljivost: 10 km
Cloud details: Few Clouds 457 m
Mostly Cloudy 1219 m
2019/12/10 18:30 BKPR 101830Z 36013KT 9999 FEW015 BKN040 04/01 Q1014 NOSIG RMK 17290095
 
LHPP - Pecs / Pogany, Hungary
Ažurirano: 10/12/2019 18:45
Vedro
Vedro
 Pravac vetra S
Vetar: S 28 km/h
Temperatura: 5°C
Osećaj hladnoće: 1°C
Tačka rose: -2°C
Vlažnost: 61%
Pritisak: 1021 hPa
Pregled: Vedro
Vidljivost: greater than 10 km
2019/12/10 17:45 LHPP 101745Z 35015KT CAVOK 05/M02 Q1021
LHUD - Szeged, Hungary
Ažurirano: 04/07/2019 01:45
NOT Current
Vedro
Vedro
 Pravac vetra S
Vetar: S 7 km/h
Temperatura: 18°C
Tačka rose: 13°C
Vlažnost: 73%
Pritisak: 1019 hPa
Pregled: Vedro
Vidljivost: greater than 10 km
2019/07/03 23:45 LHUD 032345Z 35004KT CAVOK 18/13 Q1019
LRTR - Timisoara, Romania
Ažurirano: 10/12/2019 19:30
Partly Cloudy
Partly Cloudy
 Pravac vetra S
Vetar: S 31 km/h
Temperatura: 6°C
Osećaj hladnoće: 1°C
Tačka rose: 5°C
Vlažnost: 93%
Pritisak: 1017 hPa
Oblaci: Partly Cloudy
Vidljivost: 10 km
Cloud details: Partly Cloudy 1463 m
2019/12/10 18:30 LRTR 101830Z 36017KT 9999 SCT048 06/05 Q1017
 
LRCV - Craiova, Romania
Ažurirano: 10/12/2019 19:30
Vedro
Vedro
 Pravac vetra Z
Vetar: Z 9 km/h
Temperatura: 3°C
Osećaj hladnoće: 0°C
Tačka rose: 1°C
Vlažnost: 87%
Pritisak: 1015 hPa
Pregled: Vedro
Vidljivost: greater than 10 km
2019/12/10 18:30 LRCV 101830Z 28005KT CAVOK 03/01 Q1015
LBSF - Sofia, Bulgaria
Ažurirano: 10/12/2019 19:30
Freezing fog, Oblačno
Freezing fog, Oblačno
 Pravac vetra JI
Vetar: JI 6 km/h
Temperatura: -1°C
Tačka rose: -1°C
Vlažnost: 100%
Pritisak: 1014 hPa
Pregled: Freezing Fog
Oblaci: Oblačno
Vidljivost: 1 km
Cloud details: Oblačno 61 m
2019/12/10 18:30 LBSF 101830Z 13003KT 0550 R27/0750D FZFG VV002 M01/M01 Q1014 TEMPO 0600 FZFG
LWSK - Skoplje, Makedonija
Ažurirano: 10/12/2019 19:30
Slaba kiša, Oblačno
Slaba kiša, Oblačno
 Pravac vetra JI
Vetar: JI 2 km/h
Temperatura: 6°C
Tačka rose: 6°C
Vlažnost: 100%
Pritisak: 1013 hPa
Pregled: Light Rain
Oblaci: Oblačno
Vidljivost: 7 km
Cloud details: Partly Cloudy 488 m
Oblačno 1219 m
2019/12/10 18:30 LWSK 101830Z 13001KT 7000 -RA SCT016 OVC040 06/06 Q1013 NOSIG
 
LYPG - Podgorica, Crna Gora
Ažurirano: 10/12/2019 19:30
Mostly Cloudy
Mostly Cloudy
 Pravac vetra SSI
Vetar: SSI 30 km/h
Temperatura: 12°C
Tačka rose: -1°C
Vlažnost: 41%
Pritisak: 1011 hPa
Oblaci: Mostly Cloudy
Vidljivost: 10 km
Cloud details: Partly Cloudy 1219 m
Mostly Cloudy 2438 m
2019/12/10 18:30 LYPG 101830Z 02016KT 9999 SCT040 BKN080 12/M01 Q1011 NOSIG
LQSA - Sarajevo, Bosna i Hercegovina
Ažurirano: 10/12/2019 19:30
Padavine, Oblačno
Padavine, Oblačno
 Pravac vetra SZ
Vetar: SZ 13 km/h
Temperatura: 3°C
Osećaj hladnoće: -1°C
Tačka rose: 3°C
Vlažnost: 100%
Pritisak: 1019 hPa
Pregled: Padavine
Oblaci: Oblačno
Vidljivost: 7 km
Cloud details: Partly Cloudy 366 m
Mostly Cloudy 640 m
Oblačno 853 m
2019/12/10 18:30 LQSA 101830Z 31007KT 7000 RA SCT012 BKN021 OVC028 03/03 Q1019 NOSIG
LDOS - Osijek, Hrvatksa
Ažurirano: 10/12/2019 19:30
Mostly Cloudy
Mostly Cloudy
 Pravac vetra S
Vetar: S 33 km/h
Temperatura: 5°C
Osećaj hladnoće: 0°C
Tačka rose: 1°C
Vlažnost: 76%
Pritisak: 1021 hPa
Oblaci: Mostly Cloudy
Vidljivost: 10 km
Cloud details: Partly Cloudy 213 m
Mostly Cloudy 914 m
2019/12/10 18:30 LDOS 101830Z 35018KT 9999 SCT007 BKN030 05/01 Q1021